Mound, TX (76558)

6:33 AM CST on December 22, 2014 (GMT -0600)
GATESVILLE, TX (12 Miles SE) | Change Station
CLOSE
Current Station
Personal Weather Station
Location: Leon Junction, TX
Elevation: 760 ft
Nearby Weather Stations

Elev 760 ft 31.34 °N, 97.57 °W | Updated 9 seconds ago

Partly Cloudy
Partly Cloudy
58.4 °F
Feels Like 58.4 °F
N
10.0
Wind Variable Wind from SSE
Gusts 18.0 mph

Today
High -- | Low -- °F
--% Chance of Precip.
Yesterday
High -- | Low -- °F
Precip. -- in
7:25 AM 5:32 PM
New Moon, 0% visible
Pressure 29.65 in
Visibility 10.0 miles
Clouds Clear
Dew Point 53 °F
Humidity 83%
Rainfall 0.00 in
Snow Depth Not available.
UV 0 out of 12
Pollen 10.30 out of 12
Air Quality Not available.
Flu Activity Not available.
METAR KHLR 221158Z AUTO 20013G17KT 10SM CLR 13/11 A2966 RMK AO2 SLP040 T01300113 10136 20124 55014

More Conditions Fewer Conditions

Pressure 29.65 in
Visibility 10.0 miles
Clouds Clear
Dew Point 53 °F
Humidity 83%
Rainfall 0.00 in
Snow Depth Not available.
UV 0 out of 12
Pollen 10.30 out of 12
Air Quality Not available.
Flu Activity Not available.
METAR KHLR 221158Z AUTO 20013G17KT 10SM CLR 13/11 A2966 RMK AO2 SLP040 T01300113 10136 20124 55014

More Conditions Fewer Conditions

10-Day Weather Forecast

Almanac

Astronomy

Dec. 22, 2014 Rise Set
Actual Time
Civil Twilight
Nautical Twilight
Astronomical Twilight
Moon
Length of Visible Light
Length of Day
Tomorrow will be .
, % of the Moon is Illuminated

Today's Extremes

State Highs State Lows

Community

WunderPhotos

Upload Photos

1,779,598 photos uploaded!

WunderBlogs® & News

Nearby

Air Quality

  Air Quality AQ Index Pollutant
Not available.

Snow Depth

Station Depth Elevation

Earthquake Activity

City Distance Mag. Time & Date
Minimum magnitude displayed is 2.5.

Coastal Water Temperatures

Place Temperature

Nearby Weather Stations